Time;durP1;ratioP1;P1;durP2;ratioP2;P2;SDS_P1;SDS_P2;PMS_P1;PMS_P2;Temp;Humidity;BMP_temperature;BMP_pressure;BME280_temperature;BME280_humidity;BME280_pressure;Samples;Min_cycle;Max_cycle;Signal;HPM_P1;HPM_P2
2021/07/04 00:01:57;;;;;;;;;;;;;;;-148.22;100.00;58358.63;4976932;28;1322;-74
2021/07/04 00:04:23;;;;;;;;;;;;;;;-148.22;100.00;58358.63;4975999;28;1067;-74
2021/07/04 00:06:48;;;;;;;;;;;;;;;-148.22;100.00;58358.63;4975718;28;1967;-74
2021/07/04 00:09:13;;;;;;;;;;;;;;;-148.22;100.00;58358.63;4977035;28;879;-74
2021/07/04 00:11:39;;;;;;;;;;;;;;;-148.22;100.00;58358.63;4976994;28;760;-74
2021/07/04 00:14:05;;;;;;;;;;;;;;;-148.22;100.00;58358.63;4976874;28;1218;-74
2021/07/04 00:16:31;;;;;;;;;;;;;;;-148.22;100.00;58358.63;4976973;28;808;-74
2021/07/04 00:18:57;;;;;;;;;;;;;;;-148.22;100.00;58358.63;4991626;28;800;-74
2021/07/04 00:21:23;;;;;;;;;;;;;;;-148.22;100.00;58358.63;4976156;28;847;-74
2021/07/04 00:23:48;;;;;;;;;;;;;;;-148.22;100.00;58358.63;4991830;28;863;-74
2021/07/04 00:26:14;;;;;;;;;;;;;;;-148.22;100.00;58358.63;4976768;28;1944;-74
2021/07/04 00:28:40;;;;;;;;;;;;;;;-148.22;100.00;58358.63;4976896;28;855;-74
2021/07/04 00:31:06;;;;;;;;;;;;;;;-148.22;100.00;58358.63;4976782;28;831;-74
2021/07/04 00:33:32;;;;;;;;;;;;;;;-148.22;100.00;58358.63;4976904;28;808;-74
2021/07/04 00:35:59;;;;;;;;;;;;;;;-148.22;100.00;58358.63;4976736;28;749;-74
2021/07/04 00:38:25;;;;;;;;;;;;;;;-148.22;100.00;58358.63;4976748;28;836;-74
2021/07/04 00:40:52;;;;;;;;;;;;;;;-148.22;100.00;58358.63;4976805;28;999;-74
2021/07/04 00:43:17;;;;;;;;;;;;;;;-148.22;100.00;58358.63;4976664;28;918;-74
2021/07/04 00:45:43;;;;;;;;;;;;;;;-148.22;100.00;58358.63;4976811;28;1886;-74
2021/07/04 00:48:09;;;;;;;;;;;;;;;-148.22;100.00;58358.63;4975375;28;1053;-74
2021/07/04 00:50:35;;;;;;;;;;;;;;;-148.22;100.00;58358.63;4976709;28;753;-74
2021/07/04 00:53:03;;;;;;;;;;;;;;;-148.22;100.00;58358.63;4976410;28;969;-74
2021/07/04 00:55:29;;;;;;;;;;;;;;;-148.22;100.00;58358.63;4976650;28;965;-74
2021/07/04 00:57:57;;;;;;;;;;;;;;;-148.22;100.00;58358.63;4976599;28;835;-75
2021/07/04 01:00:25;;;;;;;;;;;;;;;-148.22;100.00;58358.63;4976509;28;1225;-74
2021/07/04 01:02:51;;;;;;;;;;;;;;;-148.22;100.00;58358.63;4976407;28;1005;-74
2021/07/04 01:05:18;;;;;;;;;;;;;;;-148.22;100.00;58358.63;4974304;28;1979;-74
2021/07/04 01:07:44;;;;;;;;;;;;;;;-148.22;100.00;58358.63;4974632;28;1470;-74
2021/07/04 01:10:11;;;;;;;;;;;;;;;-148.22;100.00;58358.63;4976317;28;977;-74
2021/07/04 01:12:38;;;;;;;;;;;;;;;-148.22;100.00;58358.63;4976704;28;1052;-74
2021/07/04 01:15:04;;;;;;;;;;;;;;;-148.22;100.00;58358.63;4976324;28;796;-74
2021/07/04 01:17:32;;;;;;;;;;;;;;;-148.22;100.00;58358.63;4976468;28;1076;-74
2021/07/04 01:19:58;;;;;;;;;;;;;;;-148.22;100.00;58358.63;4976167;28;826;-74
2021/07/04 01:22:26;;;;;;;;;;;;;;;-148.22;100.00;58358.63;4976288;28;812;-74
2021/07/04 01:24:52;;;;;;;;;;;;;;;-148.22;100.00;58358.63;4974267;28;900;-74
2021/07/04 01:27:18;;;;;;;;;;;;;;;-148.22;100.00;58358.63;4976069;28;1882;-74
2021/07/04 01:29:44;;;;;;;;;;;;;;;-148.22;100.00;58358.63;4958761;28;1661;-74
2021/07/04 01:32:09;;;;;;;;;;;;;;;-148.22;100.00;58358.63;4975123;28;1274;-74
2021/07/04 01:34:34;;;;;;;;;;;;;;;-148.22;100.00;58358.63;4979818;28;1029;-74
2021/07/04 01:37:01;;;;;;;;;;;;;;;-148.22;100.00;58358.63;4979719;28;752;-74
2021/07/04 01:39:28;;;;;;;;;;;;;;;-148.22;100.00;58358.63;4979649;28;860;-74
2021/07/04 01:41:53;;;;;;;;;;;;;;;-148.22;100.00;58358.63;4979581;28;788;-74
2021/07/04 01:44:19;;;;;;;;;;;;;;;-148.22;100.00;58358.63;4979660;28;887;-74
2021/07/04 01:46:44;;;;;;;;;;;;;;;-148.22;100.00;58358.63;4979780;28;1875;-74
2021/07/04 01:49:09;;;;;;;;;;;;;;;-148.22;100.00;58358.63;4979417;28;1006;-74
2021/07/04 01:51:35;;;;;;;;;;;;;;;-148.22;100.00;58358.63;4979580;28;824;-74
2021/07/04 01:54:00;;;;;;;;;;;;;;;-148.22;100.00;58358.63;4979301;28;974;-74
2021/07/04 01:56:25;;;;;;;;;;;;;;;-148.22;100.00;58358.63;4979384;28;1029;-74
2021/07/04 01:58:50;;;;;;;;;;;;;;;-148.22;100.00;58358.63;4979425;28;1025;-74
2021/07/04 02:01:16;;;;;;;;;;;;;;;-148.22;100.00;58358.63;4979463;28;1216;-74
2021/07/04 02:03:41;;;;;;;;;;;;;;;-148.22;100.00;58358.63;4979256;28;1036;-74
2021/07/04 02:06:06;;;;;;;;;;;;;;;-148.22;100.00;58358.63;4979189;28;1964;-74
2021/07/04 02:08:32;;;;;;;;;;;;;;;-148.22;100.00;58358.63;4979209;28;966;-74
2021/07/04 02:10:58;;;;;;;;;;;;;;;-148.22;100.00;58358.63;4977977;28;1264;-74
2021/07/04 02:13:24;;;;;;;;;;;;;;;-148.22;100.00;58358.63;4979185;28;950;-74
2021/07/04 02:15:49;;;;;;;;;;;;;;;-148.22;100.00;58358.63;4979127;28;875;-74
2021/07/04 02:18:15;;;;;;;;;;;;;;;-148.22;100.00;58358.63;4979047;28;910;-74
2021/07/04 02:20:42;;;;;;;;;;;;;;;-148.22;100.00;58358.63;4962478;28;1203;-74
2021/07/04 02:23:09;;;;;;;;;;;;;;;-148.22;100.00;58358.63;4969198;28;1189;-73
2021/07/04 02:25:38;;;;;;;;;;;;;;;-148.22;100.00;58358.63;4978882;28;1945;-74
2021/07/04 02:28:05;;;;;;;;;;;;;;;-148.22;100.00;58358.63;4977574;28;1263;-74
2021/07/04 02:30:30;;;;;;;;;;;;;;;-148.22;100.00;58358.63;4978911;28;760;-74
2021/07/04 02:32:56;;;;;;;;;;;;;;;-148.22;100.00;58358.63;4978768;28;827;-74
2021/07/04 02:35:22;;;;;;;;;;;;;;;-148.22;100.00;58358.63;4979142;28;744;-74
2021/07/04 02:37:47;;;;;;;;;;;;;;;-148.22;100.00;58358.63;4978711;28;800;-74
2021/07/04 02:40:13;;;;;;;;;;;;;;;-148.22;100.00;58358.63;4978769;28;914;-74
2021/07/04 02:42:40;;;;;;;;;;;;;;;-148.22;100.00;58358.63;4976798;28;1490;-74
2021/07/04 02:45:05;;;;;;;;;;;;;;;-148.22;100.00;58358.63;4978495;28;1058;-74
2021/07/04 02:47:30;;;;;;;;;;;;;;;-148.22;100.00;58358.63;4978485;28;1886;-74
2021/07/04 02:49:57;;;;;;;;;;;;;;;-148.22;100.00;58358.63;4978503;28;784;-74
2021/07/04 02:52:23;;;;;;;;;;;;;;;-148.22;100.00;58358.63;4978431;28;788;-74
2021/07/04 02:54:49;;;;;;;;;;;;;;;-148.22;100.00;58358.63;4978630;28;789;-74
2021/07/04 02:57:15;;;;;;;;;;;;;;;-148.22;100.00;58358.63;4978616;28;651;-74
2021/07/04 02:59:40;;;;;;;;;;;;;;;-148.22;100.00;58358.63;4978526;28;776;-74
2021/07/04 03:02:05;;;;;;;;;;;;;;;-148.22;100.00;58358.63;4978280;28;761;-74
2021/07/04 03:04:30;;;;;;;;;;;;;;;-148.22;100.00;58358.63;4975821;28;1064;-74
2021/07/04 03:06:57;;;;;;;;;;;;;;;-148.22;100.00;58358.63;4978048;28;1907;-74
2021/07/04 03:09:22;;;;;;;;;;;;;;;-148.22;100.00;58358.63;4977038;28;907;-74
2021/07/04 03:11:50;;;;;;;;;;;;;;;-148.22;100.00;58358.63;4978260;28;978;-74
2021/07/04 03:14:16;;;;;;;;;;;;;;;-148.22;100.00;58358.63;4978072;28;778;-74
2021/07/04 03:16:42;;;;;;;;;;;;;;;-148.22;100.00;58358.63;4976772;28;1158;-74
2021/07/04 03:19:08;;;;;;;;;;;;;;;-148.22;100.00;58358.63;4960533;28;1237;-74
2021/07/04 03:21:33;;;;;;;;;;;;;;;-148.22;100.00;58358.63;4967387;28;894;-74
2021/07/04 03:23:58;;;;;;;;;;;;;;;-148.22;100.00;58358.63;4977932;28;986;-74
2021/07/04 03:26:23;;;;;;;;;;;;;;;-148.22;100.00;58358.63;4977652;28;1886;-74
2021/07/04 03:28:49;;;;;;;;;;;;;;;-148.22;100.00;58358.63;4977814;28;874;-74
2021/07/04 03:31:15;;;;;;;;;;;;;;;-148.22;100.00;58358.63;4977731;28;994;-74
2021/07/04 03:33:40;;;;;;;;;;;;;;;-148.22;100.00;58358.63;4977721;28;1037;-74
2021/07/04 03:36:06;;;;;;;;;;;;;;;-148.22;100.00;58358.63;4977753;28;812;-74
2021/07/04 03:38:33;;;;;;;;;;;;;;;-148.22;100.00;58358.63;4977644;28;974;-74
2021/07/04 03:40:58;;;;;;;;;;;;;;;-148.22;100.00;58358.63;4977391;28;1021;-74
2021/07/04 03:43:24;;;;;;;;;;;;;;;-148.22;100.00;58358.63;4977544;28;859;-74
2021/07/04 03:45:49;;;;;;;;;;;;;;;-148.22;100.00;58358.63;4977453;28;1894;-74
2021/07/04 03:48:14;;;;;;;;;;;;;;;-148.22;100.00;58358.63;4977382;28;781;-74
2021/07/04 03:50:40;;;;;;;;;;;;;;;-148.22;100.00;58358.63;4977643;28;815;-74
2021/07/04 03:53:06;;;;;;;;;;;;;;;-148.22;100.00;58358.63;4957394;28;1136;-74
2021/07/04 03:55:32;;;;;;;;;;;;;;;-148.22;100.00;58358.63;4957541;28;952;-74
2021/07/04 03:57:59;;;;;;;;;;;;;;;-148.22;100.00;58358.63;4957992;28;831;-74
2021/07/04 04:00:25;;;;;;;;;;;;;;;-148.22;100.00;58358.63;4957751;29;1213;-74
2021/07/04 04:02:51;;;;;;;;;;;;;;;-148.22;100.00;58358.63;4957834;29;796;-74
2021/07/04 04:05:16;;;;;;;;;;;;;;;-148.22;100.00;58358.63;4957669;29;1056;-74
2021/07/04 04:07:42;;;;;;;;;;;;;;;-148.22;100.00;58358.63;4957729;29;1977;-74
2021/07/04 04:10:07;;;;;;;;;;;;;;;-148.22;100.00;58358.63;4957917;29;799;-74
2021/07/04 04:12:33;;;;;;;;;;;;;;;-148.22;100.00;58358.63;4957961;29;1052;-74
2021/07/04 04:15:00;;;;;;;;;;;;;;;-148.22;100.00;58358.63;4957845;29;926;-74
2021/07/04 04:17:26;;;;;;;;;;;;;;;-148.22;100.00;58358.63;4957663;29;780;-74
2021/07/04 04:19:52;;;;;;;;;;;;;;;-148.22;100.00;58358.63;4957646;29;961;-74
2021/07/04 04:22:17;;;;;;;;;;;;;;;-148.22;100.00;58358.63;4957724;29;883;-74
2021/07/04 04:24:42;;;;;;;;;;;;;;;-148.22;100.00;58358.63;4957767;28;843;-74
2021/07/04 04:27:08;;;;;;;;;;;;;;;-148.22;100.00;58358.63;4957500;29;1887;-74
2021/07/04 04:29:33;;;;;;;;;;;;;;;-148.22;100.00;58358.63;4957759;28;840;-74
2021/07/04 04:31:59;;;;;;;;;;;;;;;-148.22;100.00;58358.63;4957521;29;899;-74
2021/07/04 04:34:26;;;;;;;;;;;;;;;-148.22;100.00;58358.63;4956354;29;904;-74
2021/07/04 04:36:51;;;;;;;;;;;;;;;-148.22;100.00;58358.63;4957584;29;982;-74
2021/07/04 04:39:20;;;;;;;;;;;;;;;-148.22;100.00;58358.63;4957584;28;772;-74
2021/07/04 04:41:45;;;;;;;;;;;;;;;-148.22;100.00;58358.63;4957859;28;777;-74
2021/07/04 04:44:11;;;;;;;;;;;;;;;-148.22;100.00;58358.63;4957368;29;998;-74
2021/07/04 04:46:37;;;;;;;;;;;;;;;-148.22;100.00;58358.63;4957658;29;1902;-74
2021/07/04 04:49:04;;;;;;;;;;;;;;;-148.22;100.00;58358.63;4957723;29;757;-74
2021/07/04 04:51:30;;;;;;;;;;;;;;;-148.22;100.00;58358.63;4957450;29;756;-74
2021/07/04 04:53:56;;;;;;;;;;;;;;;-148.22;100.00;58358.63;4957400;29;867;-74
2021/07/04 04:56:21;;;;;;;;;;;;;;;-148.22;100.00;58358.63;4957271;29;899;-74
2021/07/04 04:58:46;;;;;;;;;;;;;;;-148.22;100.00;58358.63;4957479;29;812;-74
2021/07/04 05:01:12;;;;;;;;;;;;;;;-148.22;100.00;58358.63;4957235;29;1033;-74
2021/07/04 05:03:38;;;;;;;;;;;;;;;-148.22;100.00;58358.63;4957475;29;784;-74
2021/07/04 05:06:03;;;;;;;;;;;;;;;-148.22;100.00;58358.63;4957478;28;1990;-74
2021/07/04 05:08:30;;;;;;;;;;;;;;;-148.22;100.00;58358.63;4959947;29;1126;-74
2021/07/04 05:10:55;;;;;;;;;;;;;;;-148.22;100.00;58358.63;4961012;29;916;-74
2021/07/04 05:13:21;;;;;;;;;;;;;;;-148.22;100.00;58358.63;4960892;29;1095;-74
2021/07/04 05:15:46;;;;;;;;;;;;;;;-148.22;100.00;58358.63;4960442;28;1212;-74
2021/07/04 05:18:11;;;;;;;;;;;;;;;-148.22;100.00;58358.63;4960745;28;1201;-74
2021/07/04 05:20:36;;;;;;;;;;;;;;;-148.22;100.00;58358.63;4960973;29;757;-74
2021/07/04 05:23:03;;;;;;;;;;;;;;;-148.22;100.00;58358.63;4960743;29;839;-74
2021/07/04 05:25:29;;;;;;;;;;;;;;;-148.22;100.00;58358.63;4960960;29;1957;-74
2021/07/04 05:27:54;;;;;;;;;;;;;;;-148.22;100.00;58358.63;4960859;29;785;-74
2021/07/04 05:30:21;;;;;;;;;;;;;;;-148.22;100.00;58358.63;4960765;29;1044;-74
2021/07/04 05:32:46;;;;;;;;;;;;;;;-148.22;100.00;58358.63;4960683;29;855;-74
2021/07/04 05:35:12;;;;;;;;;;;;;;;-148.22;100.00;58358.63;4960485;29;776;-74
2021/07/04 05:37:38;;;;;;;;;;;;;;;-148.22;100.00;58358.63;4960634;29;800;-74
2021/07/04 05:40:10;;;;;;;;;;;;;;;-148.22;100.00;58358.63;4960546;29;761;-74
2021/07/04 05:42:36;;;;;;;;;;;;;;;-148.22;100.00;58358.63;4960418;28;926;-74
2021/07/04 05:45:06;;;;;;;;;;;;;;;-148.22;100.00;58358.63;4960026;28;895;-75
2021/07/04 05:47:31;;;;;;;;;;;;;;;-148.22;100.00;58358.63;4960303;29;1948;-75
2021/07/04 05:49:57;;;;;;;;;;;;;;;-148.22;100.00;58358.63;4960425;29;769;-74
2021/07/04 05:52:22;;;;;;;;;;;;;;;-148.22;100.00;58358.63;4960238;29;848;-74
2021/07/04 05:54:47;;;;;;;;;;;;;;;-148.22;100.00;58358.63;4960315;29;832;-74
2021/07/04 05:57:12;;;;;;;;;;;;;;;-148.22;100.00;58358.63;4960442;29;765;-74
2021/07/04 05:59:38;;;;;;;;;;;;;;;-148.22;100.00;58358.63;4960291;29;982;-74
2021/07/04 06:02:03;;;;;;;;;;;;;;;-148.22;100.00;58358.63;4960138;28;1276;-74
2021/07/04 06:04:28;;;;;;;;;;;;;;;-148.22;100.00;58358.63;4957627;29;1129;-74
2021/07/04 06:06:54;;;;;;;;;;;;;;;-148.22;100.00;58358.63;4959985;28;1972;-74
2021/07/04 06:09:19;;;;;;;;;;;;;;;-148.22;100.00;58358.63;4959908;29;1009;-74
2021/07/04 06:11:48;;;;;;;;;;;;;;;-148.22;100.00;58358.63;4960213;29;820;-74
2021/07/04 06:14:13;;;;;;;;;;;;;;;-148.22;100.00;58358.63;4960111;28;854;-74
2021/07/04 06:16:38;;;;;;;;;;;;;;;-148.22;100.00;58358.63;4960010;29;982;-74
2021/07/04 06:19:04;;;;;;;;;;;;;;;-148.22;100.00;58358.63;4958669;28;756;-74
2021/07/04 06:21:29;;;;;;;;;;;;;;;-148.22;100.00;58358.63;4959921;29;856;-75
2021/07/04 06:23:54;;;;;;;;;;;;;;;-148.22;100.00;58358.63;4959773;29;1053;-74
2021/07/04 06:26:20;;;;;;;;;;;;;;;-148.22;100.00;58358.63;4959624;29;1891;-74
2021/07/04 06:28:45;;;;;;;;;;;;;;;-148.22;100.00;58358.63;4959707;29;844;-74
2021/07/04 06:31:11;;;;;;;;;;;;;;;-148.22;100.00;58358.63;4967880;28;1214;-74
2021/07/04 06:33:38;;;;;;;;;;;;;;;-148.22;100.00;58358.63;4979021;28;800;-74
2021/07/04 06:36:03;;;;;;;;;;;;;;;-148.22;100.00;58358.63;4993797;28;1066;-74
2021/07/04 06:38:28;;;;;;;;;;;;;;;-148.22;100.00;58358.63;4978762;28;1285;-74
2021/07/04 06:40:53;;;;;;;;;;;;;;;-148.22;100.00;58358.63;4978744;28;816;-74
2021/07/04 06:43:20;;;;;;;;;;;;;;;-148.22;100.00;58358.63;4978796;28;772;-74
2021/07/04 06:45:46;;;;;;;;;;;;;;;-148.22;100.00;58358.63;4978622;28;1954;-74
2021/07/04 06:48:11;;;;;;;;;;;;;;;-148.22;100.00;58358.63;4978724;28;836;-74
2021/07/04 06:50:37;;;;;;;;;;;;;;;-148.22;100.00;58358.63;4978547;28;994;-74
2021/07/04 06:53:03;;;;;;;;;;;;;;;-148.22;100.00;58358.63;4978521;28;784;-74
2021/07/04 06:55:30;;;;;;;;;;;;;;;-148.22;100.00;58358.63;4977447;28;955;-75
2021/07/04 06:57:56;;;;;;;;;;;;;;;-148.22;100.00;58358.63;4978508;28;800;-74
2021/07/04 07:00:23;;;;;;;;;;;;;;;-148.22;100.00;58358.63;4978280;28;1094;-75
2021/07/04 07:02:48;;;;;;;;;;;;;;;-148.22;100.00;58358.63;4978457;28;855;-74
2021/07/04 07:05:14;;;;;;;;;;;;;;;-148.22;100.00;58358.63;4976356;28;1033;-74
2021/07/04 07:07:40;;;;;;;;;;;;;;;-148.22;100.00;58358.63;4978235;28;1976;-75
2021/07/04 07:10:07;;;;;;;;;;;;;;;-148.22;100.00;58358.63;4978352;28;945;-75
2021/07/04 07:12:33;;;;;;;;;;;;;;;-148.22;100.00;58358.63;4978208;28;1136;-75
2021/07/04 07:15:00;;;;;;;;;;;;;;;-148.22;100.00;58358.63;4976495;28;963;-74
2021/07/04 07:17:28;;;;;;;;;;;;;;;-148.22;100.00;58358.63;4963958;28;866;-74
2021/07/04 07:19:53;;;;;;;;;;;;;;;-148.22;100.00;58358.63;4958733;28;728;-75
2021/07/04 07:22:20;;;;;;;;;;;;;;;-148.22;100.00;58358.63;4958886;29;1168;-74
2021/07/04 07:24:45;;;;;;;;;;;;;;;-148.22;100.00;58358.63;4958658;29;781;-74
2021/07/04 07:27:20;;;;;;;;;;;;;;;-148.22;100.00;58358.63;4958544;29;1954;-75
2021/07/04 07:29:45;;;;;;;;;;;;;;;-148.22;100.00;58358.63;4958173;28;860;-74
2021/07/04 07:32:16;;;;;;;;;;;;;;;-148.22;100.00;58358.63;4974610;28;993;-74
2021/07/04 07:34:43;;;;;;;;;;;;;;;-148.22;100.00;58358.63;4978087;28;1005;-75
2021/07/04 07:37:08;;;;;;;;;;;;;;;-148.22;100.00;58358.63;4977811;28;981;-75
2021/07/04 07:39:34;;;;;;;;;;;;;;;-148.22;100.00;58358.63;4977728;28;836;-75
2021/07/04 07:41:59;;;;;;;;;;;;;;;-148.22;100.00;58358.63;4977574;28;772;-75
2021/07/04 07:44:24;;;;;;;;;;;;;;;-148.22;100.00;58358.63;4977657;28;792;-75
2021/07/04 07:46:49;;;;;;;;;;;;;;;-148.22;100.00;58358.63;4977583;28;1886;-75
2021/07/04 07:49:16;;;;;;;;;;;;;;;-148.22;100.00;58358.63;4977550;28;851;-74
2021/07/04 07:51:41;;;;;;;;;;;;;;;-148.22;100.00;58358.63;4977590;28;768;-74
2021/07/04 07:54:06;;;;;;;;;;;;;;;-148.22;100.00;58358.63;4977491;28;954;-74
2021/07/04 07:56:32;;;;;;;;;;;;;;;-148.22;100.00;58358.63;4977394;28;792;-75
2021/07/04 07:59:03;;;;;;;;;;;;;;;-148.22;100.00;58358.63;4977444;28;977;-74
2021/07/04 08:01:28;;;;;;;;;;;;;;;-148.22;100.00;58358.63;4977293;28;1341;-75
2021/07/04 08:03:53;;;;;;;;;;;;;;;-148.22;100.00;58358.63;5012021;23;1560;-74
2021/07/04 08:06:19;;;;;;;;;;;;;;;-148.22;100.00;58358.63;5014947;28;1914;-74
2021/07/04 08:08:45;;;;;;;;;;;;;;;-148.22;100.00;58358.63;5015396;28;1110;-75
2021/07/04 08:11:10;;;;;;;;;;;;;;;-148.22;100.00;58358.63;5031026;28;1514;-75
2021/07/04 08:13:37;;;;;;;;;;;;;;;-148.22;100.00;58358.63;5015921;28;1106;-75
2021/07/04 08:16:02;;;;;;;;;;;;;;;-148.22;100.00;58358.63;5015062;28;1200;-75
2021/07/04 08:18:27;;;;;;;;;;;;;;;-148.22;100.00;58358.63;5014891;28;1455;-75
2021/07/04 08:20:53;;;;;;;;;;;;;;;-148.22;100.00;58358.63;5008263;28;1219;-75
2021/07/04 08:23:19;;;;;;;;;;;;;;;-148.22;100.00;58358.63;4995291;28;1216;-75
2021/07/04 08:25:45;;;;;;;;;;;;;;;-148.22;100.00;58358.63;4996451;28;1910;-75
2021/07/04 08:28:13;;;;;;;;;;;;;;;-148.22;100.00;58358.63;5012667;28;1258;-75
2021/07/04 08:30:39;;;;;;;;;;;;;;;-148.22;100.00;58358.63;5016019;28;846;-75
2021/07/04 08:33:04;;;;;;;;;;;;;;;-148.22;100.00;58358.63;5016109;28;886;-74
2021/07/04 08:35:37;;;;;;;;;;;;;;;-148.22;100.00;58358.63;5014920;28;1310;-75
2021/07/04 08:38:02;;;;;;;;;;;;;;;-148.22;100.00;58358.63;5016165;28;814;-75
2021/07/04 08:40:27;;;;;;;;;;;;;;;-148.22;100.00;58358.63;5014181;28;1172;-75
2021/07/04 08:42:52;;;;;;;;;;;;;;;-148.22;100.00;58358.63;5015683;28;850;-75
2021/07/04 08:45:18;;;;;;;;;;;;;;;-148.22;100.00;58358.63;5015772;28;804;-75
2021/07/04 08:47:43;;;;;;;;;;;;;;;-148.22;100.00;58358.63;5014706;28;1906;-75
2021/07/04 08:50:12;;;;;;;;;;;;;;;-148.22;100.00;58358.63;5015765;28;775;-75
2021/07/04 08:52:39;;;;;;;;;;;;;;;-148.22;100.00;58358.63;5014707;28;1335;-75
2021/07/04 08:55:05;;;;;;;;;;;;;;;-148.22;100.00;58358.63;5014568;28;1305;-75
2021/07/04 08:57:30;;;;;;;;;;;;;;;-148.22;100.00;58358.63;5015512;28;1360;-75
2021/07/04 08:59:56;;;;;;;;;;;;;;;-148.22;100.00;58358.63;5014585;28;1239;-75
2021/07/04 09:02:28;;;;;;;;;;;;;;;-148.22;100.00;58358.63;5012385;28;1172;-75
2021/07/04 09:05:14;;;;;;;;;;;;;;;-148.22;100.00;58358.63;5002654;28;1195;-75
2021/07/04 09:07:40;;;;;;;;;;;;;;;-148.22;100.00;58358.63;4994417;28;1914;-74
2021/07/04 09:10:12;;;;;;;;;;;;;;;-148.22;100.00;58358.63;5008701;28;1309;-75
2021/07/04 09:12:42;;;;;;;;;;;;;;;-148.22;100.00;58358.63;5014415;28;1317;-75
2021/07/04 09:15:09;;;;;;;;;;;;;;;-148.22;100.00;58358.63;5000577;28;1156;-75
2021/07/04 09:17:35;;;;;;;;;;;;;;;-148.22;100.00;58358.63;4995941;28;1106;-75
2021/07/04 09:20:04;;;;;;;;;;;;;;;-148.22;100.00;58358.63;5011041;28;1184;-75
2021/07/04 09:22:31;;;;;;;;;;;;;;;-148.22;100.00;58358.63;4995821;28;969;-75
2021/07/04 09:25:09;;;;;;;;;;;;;;;-148.22;100.00;58358.63;5010958;28;1302;-75
2021/07/04 09:27:36;;;;;;;;;;;;;;;-148.22;100.00;58358.63;5011006;28;1886;-75
2021/07/04 09:30:03;;;;;;;;;;;;;;;-148.22;100.00;58358.63;4995951;28;903;-75
2021/07/04 09:32:29;;;;;;;;;;;;;;;-148.22;100.00;58358.63;5010799;28;1282;-75
2021/07/04 09:34:57;;;;;;;;;;;;;;;-148.22;100.00;58358.63;5010852;28;1287;-75
2021/07/04 09:37:35;;;;;;;;;;;;;;;-148.22;100.00;58358.63;4995774;28;788;-75
2021/07/04 09:40:12;;;;;;;;;;;;;;;-148.22;100.00;58358.63;4995869;28;899;-75
2021/07/04 09:42:57;;;;;;;;;;;;;;;-148.22;100.00;58358.63;4995741;28;799;-75
2021/07/04 09:45:24;;;;;;;;;;;;;;;-148.22;100.00;58358.63;4995785;28;961;-75
2021/07/04 09:47:53;;;;;;;;;;;;;;;-148.22;100.00;58358.63;5010735;28;1890;-75
2021/07/04 09:50:19;;;;;;;;;;;;;;;-148.22;100.00;58358.63;5009800;28;1379;-75
2021/07/04 09:52:54;;;;;;;;;;;;;;;-148.22;100.00;58358.63;4997979;28;872;-75
2021/07/04 09:55:22;;;;;;;;;;;;;;;-148.22;100.00;58358.63;4999104;28;917;-75
2021/07/04 09:57:52;;;;;;;;;;;;;;;-148.22;100.00;58358.63;4999170;28;1028;-75
2021/07/04 10:00:18;;;;;;;;;;;;;;;-148.22;100.00;58358.63;4997026;28;1228;-75
2021/07/04 10:03:02;;;;;;;;;;;;;;;-148.22;100.00;58358.63;4978145;28;1187;-75
2021/07/04 10:05:28;;;;;;;;;;;;;;;-148.22;100.00;58358.63;4979480;28;1022;-75
2021/07/04 10:07:54;;;;;;;;;;;;;;;-148.22;100.00;58358.63;4979381;28;1910;-75
2021/07/04 10:10:21;;;;;;;;;;;;;;;-148.22;100.00;58358.63;4979755;28;793;-75
2021/07/04 10:12:48;;;;;;;;;;;;;;;-148.22;100.00;58358.63;4978010;28;1237;-75
2021/07/04 10:15:14;;;;;;;;;;;;;;;-148.22;100.00;58358.63;4979442;28;977;-74
2021/07/04 10:17:41;;;;;;;;;;;;;;;-148.22;100.00;58358.63;4979344;28;768;-75
2021/07/04 10:20:08;;;;;;;;;;;;;;;-148.22;100.00;58358.63;4977920;28;1306;-75
2021/07/04 10:22:35;;;;;;;;;;;;;;;-148.22;100.00;58358.63;4977875;28;1173;-74
2021/07/04 10:25:02;;;;;;;;;;;;;;;-148.22;100.00;58358.63;4977819;28;1236;-75
2021/07/04 10:27:27;;;;;;;;;;;;;;;-148.22;100.00;58358.63;4979088;28;1894;-75
2021/07/04 10:29:54;;;;;;;;;;;;;;;-148.22;100.00;58358.63;4977928;28;1294;-75
2021/07/04 10:32:21;;;;;;;;;;;;;;;-148.22;100.00;58358.63;4977755;28;1205;-75
2021/07/04 10:34:48;;;;;;;;;;;;;;;-148.22;100.00;58358.63;4978035;28;1341;-75
2021/07/04 10:37:15;;;;;;;;;;;;;;;-148.22;100.00;58358.63;4979072;28;814;-75
2021/07/04 10:39:41;;;;;;;;;;;;;;;-148.22;100.00;58358.63;4977700;28;1259;-75
2021/07/04 10:42:07;;;;;;;;;;;;;;;-148.22;100.00;58358.63;4977797;28;1252;-75
2021/07/04 10:44:36;;;;;;;;;;;;;;;-148.22;100.00;58358.63;4977926;28;1339;-75
2021/07/04 10:47:03;;;;;;;;;;;;;;;-148.22;100.00;58358.63;4993761;28;1894;-75
2021/07/04 10:49:36;;;;;;;;;;;;;;;-148.22;100.00;58358.63;4978690;28;800;-75
2021/07/04 10:52:10;;;;;;;;;;;;;;;-148.22;100.00;58358.63;4978731;28;855;-75
2021/07/04 10:54:44;;;;;;;;;;;;;;;-148.22;100.00;58358.63;4977414;28;1232;-75
2021/07/04 10:57:11;;;;;;;;;;;;;;;-148.22;100.00;58358.63;4978556;28;859;-75
2021/07/04 10:59:55;;;;;;;;;;;;;;;-148.22;100.00;58358.63;4977284;28;1269;-75
2021/07/04 11:02:40;;;;;;;;;;;;;;;-148.22;100.00;58358.63;4976570;28;903;-75
2021/07/04 11:05:09;;;;;;;;;;;;;;;-148.22;100.00;58358.63;4977749;28;942;-75
2021/07/04 11:08:03;;;;;;;;;;;;;;;-148.22;100.00;58358.63;4978150;28;1974;-75
2021/07/04 11:10:32;;;;;;;;;;;;;;;-148.22;100.00;58358.63;4956801;29;1097;-75
2021/07/04 11:13:22;;;;;;;;;;;;;;;-148.22;100.00;58358.63;4956946;29;832;-74
2021/07/04 11:15:51;;;;;;;;;;;;;;;-148.22;100.00;58358.63;4947102;29;1329;-75
2021/07/04 11:18:36;;;;;;;;;;;;;;;-148.22;100.00;58358.63;4940765;29;1182;-75
2021/07/04 11:21:02;;;;;;;;;;;;;;;-148.22;100.00;58358.63;4956797;29;942;-75
2021/07/04 11:23:28;;;;;;;;;;;;;;;-148.22;100.00;58358.63;4940657;29;1437;-75
2021/07/04 11:25:56;;;;;;;;;;;;;;;-148.22;100.00;58358.63;4941167;29;1887;-74
2021/07/04 11:28:28;;;;;;;;;;;;;;;-148.22;100.00;58358.63;4956637;29;1213;-74
2021/07/04 11:30:58;;;;;;;;;;;;;;;-148.22;100.00;58358.63;4940500;29;1233;-74
2021/07/04 11:33:27;;;;;;;;;;;;;;;-148.22;100.00;58358.63;4956491;29;1334;-75
2021/07/04 11:35:54;;;;;;;;;;;;;;;-148.22;100.00;58358.63;4956438;29;840;-75
2021/07/04 11:38:21;;;;;;;;;;;;;;;-148.22;100.00;58358.63;4956722;29;978;-75
2021/07/04 11:40:48;;;;;;;;;;;;;;;-148.22;100.00;58358.63;4956687;29;1090;-75
2021/07/04 11:43:14;;;;;;;;;;;;;;;-148.22;100.00;58358.63;4940310;29;1242;-75
2021/07/04 11:45:46;;;;;;;;;;;;;;;-148.22;100.00;58358.63;4940372;28;1895;-75
2021/07/04 11:48:11;;;;;;;;;;;;;;;-148.22;100.00;58358.63;4976309;28;1353;-75
2021/07/04 11:50:52;;;;;;;;;;;;;;;-148.22;100.00;58358.63;4976708;28;1331;-75
2021/07/04 11:53:18;;;;;;;;;;;;;;;-148.22;100.00;58358.63;4976233;28;1260;-74
2021/07/04 11:55:56;;;;;;;;;;;;;;;-148.22;100.00;58358.63;4976311;28;1278;-74
2021/07/04 11:58:25;;;;;;;;;;;;;;;-148.22;100.00;58358.63;4976847;28;1255;-75
2021/07/04 12:00:52;;;;;;;;;;;;;;;-148.22;100.00;58358.63;4977999;28;1411;-75
2021/07/04 12:03:22;;;;;;;;;;;;;;;-148.22;100.00;58358.63;4969105;28;1016;-75
2021/07/04 12:05:47;;;;;;;;;;;;;;;-148.22;100.00;58358.63;4956742;28;1915;-75
2021/07/04 12:08:12;;;;;;;;;;;;;;;-148.22;100.00;58358.63;4957903;28;1036;-75
2021/07/04 12:10:49;;;;;;;;;;;;;;;-148.22;100.00;58358.63;4958213;28;618;-75
2021/07/04 12:13:16;;;;;;;;;;;;;;;-148.22;100.00;58358.63;4957834;28;859;-75
2021/07/04 12:15:47;;;;;;;;;;;;;;;-148.22;100.00;58358.63;4956679;28;1456;-75
2021/07/04 12:18:17;;;;;;;;;;;;;;;-148.22;100.00;58358.63;4956645;28;1255;-75
2021/07/04 12:20:54;;;;;;;;;;;;;;;-148.22;100.00;58358.63;4957893;28;816;-75
2021/07/04 12:23:20;;;;;;;;;;;;;;;-148.22;100.00;58358.63;4956481;28;1267;-75
2021/07/04 12:25:46;;;;;;;;;;;;;;;-148.22;100.00;58358.63;4956462;28;1961;-75
2021/07/04 12:28:13;;;;;;;;;;;;;;;-148.22;100.00;58358.63;4957815;28;840;-75
2021/07/04 12:30:40;;;;;;;;;;;;;;;-148.22;100.00;58358.63;4947887;28;1201;-75